West Liberty, Kentucky
Current Conditions -  °F | °C
As of 11:53 PM on Saturday 22 Nov 2014 (Local Time) from KJKL Reporting Station
Scattered Clouds Scattered Clouds  
Wind Chill: 50°   Ceiling: Unl
Heat Index: 50°   Visibility: 10mi
Dew Point: 28°   Wind: 3mph
Humidity: 43%   Direction: 200°SSW
Pressure: 30.13"   Gusts: NA
Location:  37.92°N, 83.26°W
Report Text: KJKL 230453Z AUTO 20003KT 10SM SCT110 10/M02 A3013 RMK AO2 SLP200 T01001022 401721017
Loading
Personal Weather Stations






























Interactive Weather Map New forecast layout! Learn more

10-Day Weather Forecast

Advertisements
Track Severe Weather on mobile